Time;durP1;ratioP1;P1;durP2;ratioP2;P2;SDS_P1;SDS_P2;PMS_P1;PMS_P2;Temp;Humidity;BMP_temperature;BMP_pressure;BME280_temperature;BME280_humidity;BME280_pressure;Samples;Min_cycle;Max_cycle;Signal;HPM_P1;HPM_P2
2023/06/10 00:01:47;;;;;;;0.00;0.00;;;;;;;26.97;33.18;101641.41;5041238;28;20036;-75
2023/06/10 00:04:16;;;;;;;0.00;0.00;;;;;;;26.99;32.77;101639.16;5062577;28;20066;-76
2023/06/10 00:06:43;;;;;;;0.00;0.00;;;;;;;26.95;32.65;101635.41;5059223;28;20036;-75
2023/06/10 00:09:10;;;;;;;0.00;0.00;;;;;;;26.89;32.85;101640.25;5057483;28;20024;-78
2023/06/10 00:11:36;;;;;;;0.00;0.00;;;;;;;26.99;33.23;101644.69;5060649;28;20036;-76
2023/06/10 00:14:02;;;;;;;0.00;0.00;;;;;;;26.95;33.25;101641.75;5061102;28;20523;-78
2023/06/10 00:16:27;;;;;;;0.00;0.00;;;;;;;26.76;33.05;101640.31;5063352;28;20028;-76
2023/06/10 00:18:55;;;;;;;0.05;0.05;;;;;;;26.73;32.89;101644.50;5059637;28;20494;-77
2023/06/10 00:21:21;;;;;;;0.10;0.10;;;;;;;26.84;33.04;101645.09;5057561;28;20563;-77
2023/06/10 00:23:47;;;;;;;0.00;0.00;;;;;;;26.76;33.30;101643.06;5058301;28;20091;-75
2023/06/10 00:26:12;;;;;;;0.00;0.00;;;;;;;26.57;33.66;101640.50;5054383;28;20025;-75
2023/06/10 00:28:37;;;;;;;0.00;0.00;;;;;;;26.60;33.12;101642.59;5057478;28;20020;-77
2023/06/10 00:31:04;;;;;;;0.00;0.00;;;;;;;26.54;33.22;101643.03;5058590;28;20413;-77
2023/06/10 00:33:30;;;;;;;0.10;0.00;;;;;;;26.51;33.14;101641.72;5060744;28;20093;-79
2023/06/10 00:35:56;;;;;;;0.00;0.00;;;;;;;26.33;33.57;101641.88;5058895;28;20074;-77
2023/06/10 00:38:21;;;;;;;0.00;0.00;;;;;;;26.58;32.93;101644.03;5059931;28;20510;-77
2023/06/10 00:40:47;;;;;;;0.00;0.00;;;;;;;26.57;33.18;101646.00;5060841;28;20041;-76
2023/06/10 00:43:12;;;;;;;0.00;0.00;;;;;;;26.65;32.57;101644.44;5032905;28;20059;-75
2023/06/10 00:45:38;;;;;;;0.20;0.03;;;;;;;26.57;32.65;101648.75;5050845;28;20029;-76
2023/06/10 00:48:04;;;;;;;0.00;0.00;;;;;;;26.40;32.64;101647.78;5050617;28;20060;-77
2023/06/10 00:50:31;;;;;;;0.03;0.03;;;;;;;26.63;32.70;101649.44;5050890;28;20025;-77
2023/06/10 00:52:56;;;;;;;0.03;0.03;;;;;;;26.57;32.65;101653.44;5050157;28;20036;-75
2023/06/10 00:55:23;;;;;;;0.00;0.00;;;;;;;26.39;32.81;101649.75;5050756;28;20056;-77
2023/06/10 00:57:49;;;;;;;0.00;0.00;;;;;;;26.32;32.84;101649.34;5050580;28;20044;-77
2023/06/10 01:00:15;;;;;;;0.00;0.00;;;;;;;26.28;32.96;101650.28;5032610;28;20436;-79
2023/06/10 01:02:41;;;;;;;0.00;0.00;;;;;;;26.36;32.82;101646.78;5050897;28;20033;-76
2023/06/10 01:05:08;;;;;;;0.00;0.00;;;;;;;26.23;33.51;101648.44;5050250;28;20063;-77
2023/06/10 01:07:43;;;;;;;0.00;0.00;;;;;;;26.18;33.32;101643.03;5050435;28;20025;-77
2023/06/10 01:10:15;;;;;;;0.00;0.00;;;;;;;26.00;33.55;101653.03;5051102;28;20013;-76
2023/06/10 01:12:52;;;;;;;0.00;0.00;;;;;;;26.09;33.23;101654.00;5050676;28;20060;-78
2023/06/10 01:15:18;;;;;;;0.00;0.00;;;;;;;25.89;33.20;101648.88;5030853;28;20087;-78
2023/06/10 01:18:16;;;;;;;0.00;0.00;;;;;;;26.32;33.18;101659.56;5037201;28;20056;-77
2023/06/10 01:20:43;;;;;;;0.05;0.05;;;;;;;26.13;33.36;101647.84;4972230;28;20042;-79
2023/06/10 01:23:17;;;;;;;0.00;0.00;;;;;;;25.97;33.09;101658.34;4988759;28;20585;-78
2023/06/10 01:26:04;;;;;;;0.00;0.00;;;;;;;25.92;33.07;101656.56;4989216;28;20044;-79
2023/06/10 01:29:10;;;;;;;0.00;0.00;;;;;;;26.04;33.38;101659.56;4988719;28;20031;-78
2023/06/10 01:31:48;;;;;;;0.00;0.00;;;;;;;25.92;33.48;101656.56;4988454;28;20043;-78
2023/06/10 01:34:19;;;;;;;0.00;0.00;;;;;;;25.88;33.93;101665.72;4989027;28;20042;-78
2023/06/10 01:36:48;;;;;;;0.00;0.00;;;;;;;25.87;33.75;101666.84;4990050;28;20034;-77
2023/06/10 01:39:16;;;;;;;0.10;0.10;;;;;;;25.76;33.68;101668.19;4991444;28;20407;-77
2023/06/10 01:41:42;;;;;;;0.00;0.00;;;;;;;25.53;34.15;101658.19;4991735;28;20040;-77
2023/06/10 01:44:09;;;;;;;0.00;0.00;;;;;;;25.71;34.05;101662.78;4991867;28;20038;-78
2023/06/10 01:46:35;;;;;;;0.00;0.00;;;;;;;25.62;34.17;101664.59;4991778;28;20081;-77
2023/06/10 01:49:02;;;;;;;0.00;0.00;;;;;;;25.46;34.35;101666.84;4992237;28;20558;-78
2023/06/10 01:51:27;;;;;;;0.13;0.10;;;;;;;25.81;34.16;101674.38;4991528;28;20118;-78
2023/06/10 01:53:53;;;;;;;0.00;0.00;;;;;;;25.56;34.27;101672.16;4991804;28;20045;-78
2023/06/10 01:56:19;;;;;;;0.00;0.00;;;;;;;25.34;34.54;101665.66;5003407;28;20033;-79
2023/06/10 01:58:46;;;;;;;0.10;0.10;;;;;;;25.45;34.83;101673.47;5035479;28;20051;-78
2023/06/10 02:01:11;;;;;;;0.00;0.00;;;;;;;25.37;35.13;101663.13;5053575;28;20021;-78
2023/06/10 02:03:37;;;;;;;0.03;0.03;;;;;;;25.34;35.16;101673.91;5053434;28;20033;-78
2023/06/10 02:06:02;;;;;;;0.10;0.10;;;;;;;25.32;35.27;101665.16;5053131;28;20417;-78
2023/06/10 02:08:28;;;;;;;0.00;0.00;;;;;;;24.99;36.05;101665.19;5053276;28;20060;-80
2023/06/10 02:10:53;;;;;;;0.00;0.00;;;;;;;25.03;35.87;101666.22;5052544;28;20025;-79
2023/06/10 02:13:19;;;;;;;0.10;0.10;;;;;;;25.08;35.92;101665.31;5053553;28;20112;-79
2023/06/10 02:15:44;;;;;;;0.10;0.10;;;;;;;25.19;36.02;101666.78;5053467;28;20033;-79
2023/06/10 02:18:11;;;;;;;0.00;0.00;;;;;;;25.13;35.61;101666.03;5052951;28;20064;-79
2023/06/10 02:20:37;;;;;;;0.00;0.00;;;;;;;25.17;36.18;101671.75;5053197;28;20041;-79
2023/06/10 02:23:03;;;;;;;0.00;0.00;;;;;;;25.02;36.39;101672.81;5053229;28;20497;-79
2023/06/10 02:25:29;;;;;;;0.00;0.00;;;;;;;25.13;36.35;101676.22;5052852;28;20028;-77
2023/06/10 02:27:54;;;;;;;0.08;0.08;;;;;;;24.95;36.51;101674.34;5034840;28;20018;-78
2023/06/10 02:30:19;;;;;;;0.10;0.10;;;;;;;25.14;36.29;101670.41;5034123;28;20045;-80
2023/06/10 02:32:47;;;;;;;0.00;0.00;;;;;;;25.17;36.55;101678.09;5052875;28;20045;-79
2023/06/10 02:35:17;;;;;;;0.10;0.10;;;;;;;25.09;36.61;101669.69;5045761;28;20523;-78
2023/06/10 02:37:43;;;;;;;0.10;0.10;;;;;;;24.97;36.82;101681.19;5040130;28;20638;-80
2023/06/10 02:40:10;;;;;;;0.00;0.00;;;;;;;24.72;37.38;101676.09;5042630;28;20112;-80
2023/06/10 02:42:35;;;;;;;0.00;0.00;;;;;;;24.70;37.58;101678.31;5047508;28;20029;-79
2023/06/10 02:45:01;;;;;;;0.10;0.10;;;;;;;24.79;37.81;101673.78;5034697;28;20064;-80
2023/06/10 02:47:26;;;;;;;0.10;0.10;;;;;;;24.67;37.88;101681.63;5037332;28;20041;-78
2023/06/10 02:49:52;;;;;;;0.10;0.10;;;;;;;24.81;37.13;101670.72;5051567;28;20488;-78
2023/06/10 02:52:17;;;;;;;0.00;0.00;;;;;;;24.96;37.06;101679.53;5041035;28;20017;-79
2023/06/10 02:54:42;;;;;;;0.08;0.08;;;;;;;24.83;37.73;101679.47;5047672;28;20033;-78
2023/06/10 02:57:09;;;;;;;0.00;0.00;;;;;;;24.38;39.01;101679.06;5049690;28;20358;-79
2023/06/10 02:59:35;;;;;;;0.10;0.10;;;;;;;24.46;38.94;101677.56;5032339;28;20765;-78
2023/06/10 03:02:01;;;;;;;0.00;0.00;;;;;;;24.28;38.99;101676.44;5041568;28;20041;-78
2023/06/10 03:04:28;;;;;;;0.00;0.00;;;;;;;24.43;38.84;101683.66;5038887;28;20033;-77
2023/06/10 03:06:54;;;;;;;0.00;0.00;;;;;;;24.24;39.23;101675.41;5048375;28;20025;-79
2023/06/10 03:09:20;;;;;;;0.10;0.10;;;;;;;24.51;39.04;101682.97;5035329;28;20033;-77
2023/06/10 03:11:45;;;;;;;0.10;0.10;;;;;;;24.42;38.90;101677.34;5051702;28;20478;-78
2023/06/10 03:14:10;;;;;;;0.03;0.03;;;;;;;23.97;40.37;101682.59;5051436;28;20029;-79
2023/06/10 03:16:40;;;;;;;0.10;0.10;;;;;;;24.33;39.39;101689.31;5037469;28;20481;-79
2023/06/10 03:19:06;;;;;;;0.10;0.10;;;;;;;24.21;39.93;101687.00;5048650;28;20107;-77
2023/06/10 03:21:31;;;;;;;0.10;0.10;;;;;;;23.86;40.66;101683.84;5037142;28;20199;-79
2023/06/10 03:23:57;;;;;;;0.10;0.10;;;;;;;23.30;42.42;101681.69;5042515;28;20041;-78
2023/06/10 03:26:22;;;;;;;0.10;0.10;;;;;;;23.50;41.82;101684.25;5043879;28;20123;-77
2023/06/10 03:28:48;;;;;;;0.10;0.10;;;;;;;24.04;40.50;101681.16;5035231;28;20052;-79
2023/06/10 03:31:16;;;;;;;0.10;0.10;;;;;;;24.16;40.43;101688.97;5040736;28;20021;-79
2023/06/10 03:33:42;;;;;;;0.03;0.03;;;;;;;23.99;40.99;101681.22;5043777;28;20579;-78
2023/06/10 03:36:07;;;;;;;0.08;0.08;;;;;;;24.17;40.19;101687.88;5029957;28;20041;-77
2023/06/10 03:38:32;;;;;;;0.17;0.17;;;;;;;24.21;40.37;101691.66;5031296;28;20037;-77
2023/06/10 03:40:58;;;;;;;0.10;0.10;;;;;;;24.22;40.52;101690.53;5047184;28;20075;-79
2023/06/10 03:43:23;;;;;;;0.10;0.10;;;;;;;24.04;41.04;101700.38;5036311;28;20032;-77
2023/06/10 03:45:49;;;;;;;0.00;0.00;;;;;;;24.23;40.97;101697.69;5042987;28;20175;-78
2023/06/10 03:48:14;;;;;;;0.10;0.10;;;;;;;24.38;40.42;101694.72;5042408;28;20033;-76
2023/06/10 03:50:40;;;;;;;0.10;0.10;;;;;;;23.99;41.76;101691.38;5035927;28;20505;-78
2023/06/10 03:53:05;;;;;;;0.10;0.10;;;;;;;24.21;41.29;101700.72;5047653;28;20533;-78
2023/06/10 03:55:31;;;;;;;0.10;0.10;;;;;;;24.23;40.71;101695.75;5035901;28;20079;-78
2023/06/10 03:57:56;;;;;;;0.10;0.10;;;;;;;23.94;42.15;101700.47;5042188;28;20022;-79
2023/06/10 04:00:22;;;;;;;0.10;0.10;;;;;;;24.04;41.86;101705.88;5030937;28;20033;-78
2023/06/10 04:02:51;;;;;;;0.10;0.10;;;;;;;24.21;41.12;101705.41;5027718;28;20066;-78
2023/06/10 04:05:18;;;;;;;0.10;0.10;;;;;;;24.10;41.82;101696.47;5029586;28;20037;-80
2023/06/10 04:07:44;;;;;;;0.10;0.10;;;;;;;23.87;42.59;101705.50;5036768;28;20090;-81
2023/06/10 04:10:10;;;;;;;0.10;0.10;;;;;;;24.23;41.46;101706.75;5036755;28;20013;-81
2023/06/10 04:12:36;;;;;;;0.10;0.10;;;;;;;23.94;42.66;101710.66;5018802;28;20034;-79
2023/06/10 04:15:03;;;;;;;0.00;0.00;;;;;;;24.10;42.26;101704.69;5030636;28;20209;-80
2023/06/10 04:17:28;;;;;;;0.00;0.00;;;;;;;23.77;42.81;101705.63;5036617;28;20039;-79
2023/06/10 04:19:54;;;;;;;0.10;0.10;;;;;;;23.58;43.67;101706.66;5042328;28;20034;-79
2023/06/10 04:22:20;;;;;;;0.10;0.10;;;;;;;23.96;43.11;101709.25;5043344;28;20091;-78
2023/06/10 04:24:45;;;;;;;0.10;0.10;;;;;;;24.20;42.53;101712.81;5034628;28;20041;-79
2023/06/10 04:27:11;;;;;;;0.10;0.10;;;;;;;24.45;41.67;101714.41;5040218;28;20033;-78
2023/06/10 04:29:36;;;;;;;0.10;0.10;;;;;;;24.35;41.96;101714.56;5049871;28;20060;-78
2023/06/10 04:32:02;;;;;;;0.00;0.00;;;;;;;24.59;41.39;101723.53;5040682;28;20505;-80
2023/06/10 04:34:28;;;;;;;0.10;0.10;;;;;;;24.10;42.76;101714.88;5048736;28;20492;-80
2023/06/10 04:36:53;;;;;;;0.10;0.10;;;;;;;24.31;42.53;101716.25;5030974;28;20037;-79
2023/06/10 04:39:19;;;;;;;0.10;0.10;;;;;;;24.43;42.22;101722.13;5056741;28;20453;-79
2023/06/10 04:41:45;;;;;;;0.10;0.10;;;;;;;24.39;42.61;101721.88;5033658;28;20029;-80
2023/06/10 04:44:10;;;;;;;0.10;0.10;;;;;;;24.67;41.34;101724.81;5030812;28;20025;-77
2023/06/10 04:46:36;;;;;;;0.00;0.00;;;;;;;24.69;41.87;101726.13;5019151;28;20489;-79
2023/06/10 04:49:02;;;;;;;0.10;0.10;;;;;;;24.21;42.79;101728.19;5048625;28;20029;-78
2023/06/10 04:51:27;;;;;;;0.00;0.00;;;;;;;24.35;42.73;101726.34;5033550;28;20033;-79
2023/06/10 04:53:53;;;;;;;0.00;0.00;;;;;;;24.25;42.85;101726.47;5042470;28;20145;-77
2023/06/10 04:56:20;;;;;;;0.10;0.10;;;;;;;24.58;42.20;101726.59;5050338;28;20055;-78
2023/06/10 04:58:45;;;;;;;0.00;0.00;;;;;;;24.50;42.75;101728.06;5031989;28;20059;-78
2023/06/10 05:01:10;;;;;;;0.10;0.10;;;;;;;24.56;42.39;101729.63;5050505;28;20025;-78
2023/06/10 05:03:36;;;;;;;0.10;0.10;;;;;;;24.83;41.63;101734.47;5050137;28;20517;-78
2023/06/10 05:06:01;;;;;;;0.10;0.10;;;;;;;24.86;42.24;101720.16;5050103;28;20033;-78
2023/06/10 05:08:26;;;;;;;0.10;0.10;;;;;;;24.80;42.00;101724.91;5049719;28;20037;-79
2023/06/10 05:10:52;;;;;;;0.10;0.10;;;;;;;24.77;41.63;101731.00;5064906;28;20033;-77
2023/06/10 05:13:17;;;;;;;0.10;0.10;;;;;;;24.95;42.03;101730.16;5054093;28;20025;-78
2023/06/10 05:15:44;;;;;;;0.10;0.10;;;;;;;24.97;41.74;101724.34;5035091;28;20048;-78
2023/06/10 05:18:11;;;;;;;0.00;0.00;;;;;;;25.01;41.25;101719.91;5053366;28;20025;-79
2023/06/10 05:20:36;;;;;;;0.00;0.00;;;;;;;25.09;41.49;101725.53;5025637;28;20041;-78
2023/06/10 05:23:01;;;;;;;0.00;0.00;;;;;;;24.97;41.45;101724.34;5034632;28;20498;-78
2023/06/10 05:25:30;;;;;;;0.00;0.00;;;;;;;25.31;41.01;101719.38;5033335;28;20025;-78
2023/06/10 05:27:55;;;;;;;0.10;0.10;;;;;;;25.26;40.92;101731.28;5046398;28;20021;-78
2023/06/10 05:30:21;;;;;;;0.10;0.10;;;;;;;24.98;41.85;101728.75;5035292;28;20048;-79
2023/06/10 05:32:46;;;;;;;0.00;0.00;;;;;;;25.17;41.08;101724.03;5053635;28;20061;-77
2023/06/10 05:35:12;;;;;;;0.00;0.00;;;;;;;24.75;41.98;101738.72;5053950;28;20090;-79
2023/06/10 05:37:37;;;;;;;0.00;0.00;;;;;;;25.37;40.99;101736.63;5054045;28;20025;-77
2023/06/10 05:40:04;;;;;;;0.00;0.00;;;;;;;25.39;40.81;101734.38;5054966;28;20013;-81
2023/06/10 05:42:29;;;;;;;0.00;0.00;;;;;;;25.53;40.58;101738.84;5054233;28;20029;-81
2023/06/10 05:44:55;;;;;;;0.05;0.05;;;;;;;25.79;40.20;101739.97;5054472;28;20043;-81
2023/06/10 05:47:20;;;;;;;0.00;0.00;;;;;;;25.59;40.66;101739.56;5054172;28;20029;-79
2023/06/10 05:49:48;;;;;;;0.10;0.10;;;;;;;25.58;40.49;101729.66;5053758;28;20033;-78
2023/06/10 05:52:13;;;;;;;0.00;0.00;;;;;;;25.58;40.78;101744.25;5054263;28;20025;-77
2023/06/10 05:54:39;;;;;;;0.05;0.05;;;;;;;25.76;40.41;101743.34;5035270;28;20395;-78
2023/06/10 05:57:05;;;;;;;0.10;0.10;;;;;;;25.73;40.43;101738.44;5053033;28;20413;-79
2023/06/10 05:59:31;;;;;;;0.10;0.10;;;;;;;25.18;42.00;101744.91;5035750;28;20037;-78
2023/06/10 06:01:56;;;;;;;0.10;0.10;;;;;;;25.78;40.48;101738.34;5053339;28;20031;-80
2023/06/10 06:04:22;;;;;;;0.00;0.00;;;;;;;25.81;40.35;101743.25;5053588;28;20036;-78
2023/06/10 06:06:47;;;;;;;0.10;0.10;;;;;;;25.24;41.49;101740.94;5035169;28;20037;-78
2023/06/10 06:09:12;;;;;;;0.00;0.00;;;;;;;25.13;41.56;101739.50;5053493;28;20033;-79
2023/06/10 06:11:38;;;;;;;0.10;0.10;;;;;;;25.37;40.97;101731.94;5053372;28;20040;-79
2023/06/10 06:14:03;;;;;;;0.00;0.00;;;;;;;25.81;40.36;101728.66;5053136;28;20135;-79
2023/06/10 06:16:29;;;;;;;0.00;0.00;;;;;;;26.07;39.24;101741.66;5053246;28;20024;-78
2023/06/10 06:18:54;;;;;;;0.00;0.00;;;;;;;25.85;40.13;101736.00;5054278;28;20511;-80
2023/06/10 06:21:20;;;;;;;0.00;0.00;;;;;;;26.08;39.45;101742.47;5037691;28;20044;-81
2023/06/10 06:23:45;;;;;;;0.00;0.00;;;;;;;26.30;38.39;101736.22;5034459;28;20527;-83
2023/06/10 06:26:10;;;;;;;0.00;0.00;;;;;;;25.90;39.17;101737.84;5053216;28;20033;-82
2023/06/10 06:28:36;;;;;;;0.10;0.10;;;;;;;26.04;39.11;101739.47;5053358;28;20040;-81
2023/06/10 06:31:01;;;;;;;0.47;0.00;;;;;;;25.91;39.24;101737.53;5053352;28;20085;-79
2023/06/10 06:33:27;;;;;;;0.05;0.05;;;;;;;26.60;38.14;101743.81;5052794;28;20071;-80
2023/06/10 06:35:52;;;;;;;0.08;0.08;;;;;;;26.42;38.86;101737.31;5053665;28;20029;-81
2023/06/10 06:38:17;;;;;;;0.00;0.00;;;;;;;25.97;38.88;101741.81;5053950;28;20033;-79
2023/06/10 06:41:21;;;;;;;0.00;0.00;;;;;;;26.53;38.15;101735.16;5054163;28;20032;-80
2023/06/10 06:43:47;;;;;;;0.00;0.00;;;;;;;25.99;39.20;101738.75;5053842;28;20101;-79
2023/06/10 06:46:12;;;;;;;0.00;0.00;;;;;;;26.40;38.50;101738.75;5054535;28;20083;-79
2023/06/10 06:48:38;;;;;;;0.00;0.00;;;;;;;26.21;38.50;101736.13;5054607;28;20033;-79
2023/06/10 06:51:03;;;;;;;0.10;0.10;;;;;;;26.97;37.16;101743.50;5053602;28;20044;-81
2023/06/10 06:53:28;;;;;;;0.00;0.00;;;;;;;27.23;37.11;101740.94;5054131;28;20121;-80
2023/06/10 06:55:54;;;;;;;0.00;0.00;;;;;;;27.22;36.68;101744.84;5053632;28;20021;-80
2023/06/10 06:58:19;;;;;;;0.00;0.00;;;;;;;27.15;36.56;101741.69;5053212;28;20025;-80
2023/06/10 07:00:45;;;;;;;0.10;0.00;;;;;;;26.37;38.15;101733.84;5053467;28;20043;-80
2023/06/10 07:03:10;;;;;;;0.10;0.10;;;;;;;27.35;36.83;101742.03;5052624;28;20037;-78
2023/06/10 07:05:36;;;;;;;0.00;0.00;;;;;;;27.40;35.80;101746.63;5034947;28;20064;-79
2023/06/10 07:08:02;;;;;;;0.03;0.03;;;;;;;27.97;35.03;101747.56;5053145;28;20044;-80
2023/06/10 07:10:28;;;;;;;0.00;0.00;;;;;;;27.89;34.96;101748.31;5049787;28;20036;-79
2023/06/10 07:12:54;;;;;;;0.00;0.00;;;;;;;27.74;34.86;101749.53;5053137;28;20500;-79
2023/06/10 07:15:19;;;;;;;0.00;0.00;;;;;;;28.17;34.44;101758.84;5052718;28;20037;-78
2023/06/10 07:17:45;;;;;;;0.00;0.00;;;;;;;27.65;35.37;101749.53;5052465;28;20319;-79
2023/06/10 07:20:11;;;;;;;0.10;0.00;;;;;;;27.50;35.81;101743.56;5057491;28;20045;-79
2023/06/10 07:22:38;;;;;;;0.00;0.00;;;;;;;27.97;35.25;101750.34;5059783;28;20020;-78
2023/06/10 07:25:04;;;;;;;0.00;0.00;;;;;;;27.53;36.20;101749.28;5058377;28;20021;-77
2023/06/10 07:27:30;;;;;;;0.00;0.00;;;;;;;27.79;35.32;101755.75;5060549;28;20033;-76
2023/06/10 07:29:55;;;;;;;0.00;0.00;;;;;;;27.57;36.05;101747.53;5060364;28;20056;-75
2023/06/10 07:32:22;;;;;;;0.00;0.00;;;;;;;28.53;33.76;101753.06;5044451;28;20366;-76
2023/06/10 07:34:47;;;;;;;0.00;0.00;;;;;;;28.04;34.77;101748.72;5062657;28;20042;-77
2023/06/10 07:37:13;;;;;;;0.00;0.00;;;;;;;28.19;35.06;101755.75;5062219;28;20013;-76
2023/06/10 07:39:38;;;;;;;0.00;0.00;;;;;;;28.86;33.33;101754.25;5060609;28;20033;-77
2023/06/10 07:42:04;;;;;;;0.00;0.00;;;;;;;27.62;34.70;101760.38;5057965;28;20091;-77
2023/06/10 07:44:29;;;;;;;0.00;0.00;;;;;;;28.49;33.98;101755.66;5059750;28;20116;-77
2023/06/10 07:46:55;;;;;;;0.00;0.00;;;;;;;28.34;34.23;101766.38;5061397;28;20051;-78
2023/06/10 07:49:20;;;;;;;0.00;0.00;;;;;;;28.50;33.75;101760.06;5060127;28;20059;-77
2023/06/10 07:51:46;;;;;;;0.00;0.00;;;;;;;28.25;35.09;101763.59;5058971;28;20036;-77
2023/06/10 07:54:14;;;;;;;0.00;0.00;;;;;;;29.09;32.90;101760.44;5053361;28;20032;-75
2023/06/10 07:56:39;;;;;;;0.00;0.00;;;;;;;27.83;34.73;101768.94;5056455;28;20396;-71
2023/06/10 07:59:05;;;;;;;0.00;0.00;;;;;;;28.39;33.81;101769.81;5053713;28;20052;-72
2023/06/10 08:01:31;;;;;;;0.00;0.00;;;;;;;28.78;33.21;101762.53;5058743;28;20021;-70
2023/06/10 08:03:56;;;;;;;0.00;0.00;;;;;;;29.09;32.76;101771.53;5059399;28;20032;-70
2023/06/10 08:06:22;;;;;;;0.00;0.00;;;;;;;29.21;32.57;101764.19;5059345;28;20093;-70
2023/06/10 08:08:47;;;;;;;0.00;0.00;;;;;;;28.92;32.97;101752.13;5024144;28;20032;-71
2023/06/10 08:11:13;;;;;;;0.00;0.00;;;;;;;29.76;32.03;101758.69;5056625;28;20087;-71
2023/06/10 08:13:39;;;;;;;0.00;0.00;;;;;;;29.79;31.75;101760.81;5058665;28;20107;-70
2023/06/10 08:16:05;;;;;;;0.00;0.00;;;;;;;30.24;31.22;101756.38;5058854;28;20025;-72
2023/06/10 08:18:31;;;;;;;0.00;0.00;;;;;;;29.69;31.72;101760.34;5060007;28;20059;-70
2023/06/10 08:20:57;;;;;;;0.05;0.00;;;;;;;29.90;32.19;101752.94;5056027;28;20039;-71
2023/06/10 08:23:22;;;;;;;0.00;0.00;;;;;;;29.62;32.29;101760.03;5059464;28;20029;-71
2023/06/10 08:25:47;;;;;;;0.00;0.00;;;;;;;29.68;32.36;101759.50;5057294;28;20036;-70
2023/06/10 08:28:13;;;;;;;0.00;0.00;;;;;;;29.85;32.09;101756.72;5059575;28;20024;-70
2023/06/10 08:30:38;;;;;;;0.00;0.00;;;;;;;29.44;31.64;101756.50;5060294;28;20063;-69
2023/06/10 08:33:04;;;;;;;0.00;0.00;;;;;;;30.19;30.16;101766.84;5058046;28;20099;-72
2023/06/10 08:35:29;;;;;;;0.00;0.00;;;;;;;30.86;29.20;101770.34;5059661;28;20082;-72
2023/06/10 08:37:55;;;;;;;0.00;0.00;;;;;;;30.53;30.23;101757.50;5059557;28;20420;-70
2023/06/10 08:40:20;;;;;;;0.00;0.00;;;;;;;30.53;30.34;101765.81;5059603;28;20116;-72
2023/06/10 08:43:05;;;;;;;0.00;0.00;;;;;;;30.96;29.53;101758.00;5054291;28;20174;-70
2023/06/10 08:45:32;;;;;;;0.00;0.00;;;;;;;31.25;29.75;101763.47;5057200;28;20595;-69
2023/06/10 08:47:58;;;;;;;0.00;0.00;;;;;;;31.09;29.13;101757.75;5062886;28;20044;-71
2023/06/10 08:50:25;;;;;;;0.00;0.00;;;;;;;31.56;29.11;101760.22;5062080;28;20611;-70
2023/06/10 08:52:57;;;;;;;0.00;0.00;;;;;;;31.13;29.13;101760.66;5063891;28;20090;-70
2023/06/10 08:55:38;;;;;;;0.00;0.00;;;;;;;31.71;29.06;101765.91;5064243;28;20078;-71
2023/06/10 08:58:04;;;;;;;0.00;0.00;;;;;;;32.05;27.82;101758.31;5064123;28;20033;-70
2023/06/10 09:00:31;;;;;;;0.00;0.00;;;;;;;31.84;28.16;101763.97;5062386;28;20033;-69
2023/06/10 09:02:58;;;;;;;0.00;0.00;;;;;;;31.14;28.69;101759.47;5035810;28;20099;-70
2023/06/10 09:05:23;;;;;;;0.00;0.00;;;;;;;31.87;27.83;101769.66;5058148;28;20552;-70
2023/06/10 09:07:51;;;;;;;0.00;0.00;;;;;;;32.08;27.68;101761.22;5067664;28;20052;-70
2023/06/10 09:10:17;;;;;;;0.00;0.00;;;;;;;31.63;27.84;101761.28;5065060;28;20568;-69
2023/06/10 09:12:42;;;;;;;0.00;0.00;;;;;;;32.05;28.84;101767.50;5062991;28;20045;-70
2023/06/10 09:15:08;;;;;;;0.00;0.00;;;;;;;32.00;27.74;101762.13;5067280;28;20477;-69
2023/06/10 09:17:36;;;;;;;0.00;0.00;;;;;;;32.25;27.52;101758.22;5059401;28;20045;-72
2023/06/10 09:20:02;;;;;;;0.00;0.00;;;;;;;33.12;26.64;101752.94;5053152;28;20045;-72
2023/06/10 09:22:28;;;;;;;0.00;0.00;;;;;;;32.68;26.42;101760.38;5060108;28;20396;-73
2023/06/10 09:25:08;;;;;;;0.00;0.00;;;;;;;32.31;26.44;101754.03;5062838;28;20074;-71
2023/06/10 09:27:50;;;;;;;0.20;0.00;;;;;;;32.77;26.19;101747.91;5065694;28;20346;-73
2023/06/10 09:30:36;;;;;;;0.00;0.00;;;;;;;32.86;26.04;101756.94;5047397;28;20041;-73
2023/06/10 09:33:09;;;;;;;0.00;0.00;;;;;;;33.21;26.34;101750.78;5060411;28;20130;-74
2023/06/10 09:35:34;;;;;;;0.00;0.00;;;;;;;33.66;24.88;101749.28;5062268;28;20031;-73
2023/06/10 09:38:00;;;;;;;0.03;0.00;;;;;;;33.66;25.73;101751.25;5063362;28;20032;-72
2023/06/10 09:40:27;;;;;;;0.00;0.00;;;;;;;32.79;26.06;101745.59;5059728;28;20032;-72
2023/06/10 09:43:00;;;;;;;0.00;0.00;;;;;;;32.83;26.07;101751.25;5057561;28;20025;-74
2023/06/10 09:45:32;;;;;;;0.00;0.00;;;;;;;32.75;26.23;101761.38;5069046;28;20047;-74
2023/06/10 09:47:58;;;;;;;0.00;0.00;;;;;;;33.22;25.68;101741.28;5069307;28;20039;-74
2023/06/10 09:50:23;;;;;;;0.00;0.00;;;;;;;32.92;25.55;101743.59;5069121;28;20070;-73
2023/06/10 09:52:50;;;;;;;0.00;0.00;;;;;;;32.97;25.77;101740.56;5068764;28;20025;-75
2023/06/10 09:55:17;;;;;;;0.00;0.00;;;;;;;33.22;25.61;101747.63;5064945;28;20029;-74
2023/06/10 09:57:44;;;;;;;0.00;0.00;;;;;;;33.68;24.36;101749.72;5036998;28;20041;-73
2023/06/10 10:00:11;;;;;;;0.00;0.00;;;;;;;33.43;25.04;101744.63;5055568;28;20468;-74
2023/06/10 10:02:46;;;;;;;0.00;0.00;;;;;;;33.48;24.68;101749.97;5053221;28;20033;-75
2023/06/10 10:05:14;;;;;;;0.00;0.00;;;;;;;34.25;24.05;101745.56;5059852;28;20044;-75
2023/06/10 10:07:40;;;;;;;0.00;0.00;;;;;;;34.22;24.01;101749.88;5068305;28;20050;-76
2023/06/10 10:10:07;;;;;;;0.00;0.00;;;;;;;34.26;23.48;101747.97;5068900;28;20032;-74
2023/06/10 10:12:33;;;;;;;0.00;0.00;;;;;;;34.14;23.56;101750.09;5067569;28;20071;-74
2023/06/10 10:14:59;;;;;;;0.00;0.00;;;;;;;34.18;23.42;101748.97;5046644;28;20619;-72
2023/06/10 10:17:25;;;;;;;0.00;0.00;;;;;;;34.28;23.68;101742.84;5059997;28;20094;-74
2023/06/10 10:19:57;;;;;;;0.00;0.00;;;;;;;34.54;23.04;101739.47;5060531;28;20029;-75
2023/06/10 10:22:31;;;;;;;0.00;0.00;;;;;;;34.86;23.77;101742.94;5060525;28;20025;-70
2023/06/10 10:24:59;;;;;;;0.00;0.00;;;;;;;34.27;23.60;101741.22;5055642;28;20563;-74
2023/06/10 10:27:28;;;;;;;0.00;0.00;;;;;;;35.50;22.49;101731.88;5058316;28;20131;-73
2023/06/10 10:29:54;;;;;;;0.00;0.00;;;;;;;34.96;22.60;101734.81;5060918;28;20523;-75
2023/06/10 10:32:43;;;;;;;0.45;0.00;;;;;;;34.31;22.97;101730.16;5055814;28;20042;-72
2023/06/10 10:35:15;;;;;;;0.00;0.00;;;;;;;34.90;22.88;101741.03;5059656;28;20538;-74
2023/06/10 10:37:41;;;;;;;0.00;0.00;;;;;;;35.35;21.97;101729.97;5035994;28;20041;-74
2023/06/10 10:40:08;;;;;;;0.00;0.00;;;;;;;35.88;21.45;101725.31;5040088;28;20045;-75
2023/06/10 10:42:35;;;;;;;0.00;0.00;;;;;;;35.95;22.03;101722.69;5059744;28;20028;-73
2023/06/10 10:45:01;;;;;;;0.00;0.00;;;;;;;36.55;21.17;101726.38;5060023;28;20040;-74
2023/06/10 10:47:30;;;;;;;0.00;0.00;;;;;;;36.06;21.28;101727.25;5054860;28;20037;-74
2023/06/10 10:49:59;;;;;;;0.00;0.00;;;;;;;36.38;20.76;101724.13;5052319;28;20470;-73
2023/06/10 10:52:25;;;;;;;0.00;0.00;;;;;;;35.21;21.59;101722.13;5051699;28;20025;-72
2023/06/10 10:54:53;;;;;;;0.00;0.00;;;;;;;36.30;21.67;101723.22;5051153;28;20039;-73
2023/06/10 10:57:20;;;;;;;0.00;0.00;;;;;;;35.87;21.48;101713.31;5052072;28;20074;-72
2023/06/10 10:59:49;;;;;;;0.00;0.00;;;;;;;35.61;22.15;101715.28;5049707;28;20120;-72
2023/06/10 11:02:45;;;;;;;0.00;0.00;;;;;;;36.49;21.00;101705.47;5052392;28;20032;-71
2023/06/10 11:05:13;;;;;;;0.00;0.00;;;;;;;36.15;21.56;101702.59;5051678;28;20025;-73
2023/06/10 11:07:38;;;;;;;0.00;0.00;;;;;;;36.07;21.36;101703.66;5034570;28;20024;-71
2023/06/10 11:10:12;;;;;;;0.00;0.00;;;;;;;36.55;20.59;101704.78;5050495;28;20044;-72
2023/06/10 11:12:46;;;;;;;0.00;0.00;;;;;;;36.95;20.10;101704.88;5050639;28;20037;-72
2023/06/10 11:15:22;;;;;;;0.00;0.00;;;;;;;37.74;20.13;101702.47;5048670;28;20037;-69
2023/06/10 11:18:13;;;;;;;0.00;0.00;;;;;;;36.71;20.45;101701.78;5048288;28;20032;-73
2023/06/10 11:20:48;;;;;;;0.00;0.00;;;;;;;36.35;20.72;101694.88;5049610;28;20268;-72
2023/06/10 11:23:28;;;;;;;0.00;0.00;;;;;;;36.81;20.18;101690.69;5049113;28;20053;-73
2023/06/10 11:26:10;;;;;;;0.32;0.00;;;;;;;38.18;19.57;101693.16;5054594;28;20037;-73